Flight Track Log - Related Links

Times and Time Zones

All times are in EDT time to prevent confusion due to time zone crossing. See the G52651 flight status page for this flight to view local times or setup timezone preferences in your user account.


Time Position Orientation Groundspeed Altitude Reporting Facility
EDT Latitude Longitude Course Direction KTS MPH feet Rate Location/Type
Tue 10:00:00 PM 22.9785 109.4834 73° East  Level Estimated
Tue 10:01:00 PM 23.0028 109.5711 73° East  Level Estimated
Tue 10:02:00 PM 23.0270 109.6587 73° East  Level Estimated
Tue 10:03:00 PM 23.0459 109.7270 73° East  Level Estimated
Tue 10:04:00 PM 23.0646 109.7952 73° East  Level Estimated
Tue 10:05:00 PM 23.0834 109.8635 73° East  Level Estimated
Tue 10:06:00 PM 23.1022 109.9317 73° East  Level Estimated
Tue 10:07:00 PM 23.1209 110.0000 73° East  Level Estimated
Tue 10:08:00 PM 23.1395 110.0684 73° East  Level Estimated
Tue 10:09:00 PM 23.1582 110.1367 73° East  Level Estimated
Tue 10:10:00 PM 23.1768 110.2050 73° East  Level Estimated
Tue 10:11:00 PM 23.1954 110.2734 74° East  Level Estimated
Tue 10:12:00 PM 23.2140 110.3418 74° East  Level Estimated
Tue 10:13:00 PM 23.2325 110.4102 74° East  Level Estimated
Tue 10:14:00 PM 23.2510 110.4786 74° East  Level Estimated
Tue 10:15:00 PM 23.2695 110.5471 74° East  Level Estimated
Tue 10:16:00 PM 23.2879 110.6155 74° East  Level Estimated
Tue 10:17:00 PM 23.3063 110.6840 74° East  Level Estimated
Tue 10:18:00 PM 23.3247 110.7525 74° East  Level Estimated
Tue 10:19:00 PM 23.3431 110.8211 74° East  Level Estimated
Tue 10:20:00 PM 23.3614 110.8896 74° East  Level Estimated
Tue 10:21:00 PM 23.3797 110.9582 74° East  Level Estimated
Tue 10:22:00 PM 23.3980 111.0267 74° East  Level Estimated
Tue 10:23:00 PM 23.4162 111.0953 74° East  Level Estimated
Tue 10:24:00 PM 23.4344 111.1639 74° East  Level Estimated
Tue 10:25:00 PM 23.4526 111.2326 74° East  Level Estimated
Tue 10:26:00 PM 23.4567 111.2481 74° East  Level Estimated
Tue 10:27:00 PM 23.4567 111.2481 231° Southwest  Level Estimated
Tue 10:28:00 PM 23.4567 111.2481 231° Southwest  Level Estimated
Tue 10:29:00 PM 23.4567 111.2481 231° Southwest  Level Estimated
Tue 10:30:00 PM 23.4567 111.2481 231° Southwest  Level Estimated
Tue 10:31:00 PM 23.4567 111.2481 231° Southwest  Level Estimated
Tue 10:32:00 PM 23.4567 111.2481 231° Southwest  Level Estimated
Tue 10:33:00 PM 23.4567 111.2481 231° Southwest  Level Estimated
Tue 10:34:00 PM 23.4567 111.2481 231° Southwest  Level Estimated
Tue 10:35:00 PM 23.4567 111.2481 231° Southwest  Level Estimated
Tue 10:36:00 PM 23.4567 111.2481 231° Southwest  Level Estimated
Tue 10:37:00 PM 23.4567 111.2481 231° Southwest  Level Estimated
Tue 10:38:00 PM 23.4567 111.2481 231° Southwest  Level Estimated
Tue 10:39:00 PM 23.4567 111.2481 231° Southwest  Level Estimated
Tue 10:40:00 PM 23.4567 111.2481 231° Southwest  Level Estimated
Tue 10:41:00 PM 23.4567 111.2481 231° Southwest  Level Estimated
Tue 10:42:00 PM 23.4567 111.2481 231° Southwest  Level Estimated
Tue 10:43:00 PM 23.4567 111.2481 231° Southwest  Level Estimated
Tue 10:44:00 PM 23.4567 111.2481 231° Southwest  Level Estimated
Tue 10:45:00 PM 23.4567 111.2481 231° Southwest  Level Estimated
Tue 10:46:00 PM 23.4567 111.2481 231° Southwest  Level Estimated

Login

Don't have an account? Register now (free) for customized features, flight alerts, and more!